Time;durP1;ratioP1;P1;durP2;ratioP2;P2;SDS_P1;SDS_P2;PMS_P1;PMS_P2;Temp;Humidity;BMP_temperature;BMP_pressure;BME280_temperature;BME280_humidity;BME280_pressure;Samples;Min_cycle;Max_cycle;Signal;HPM_P1;HPM_P2
2023/05/30 00:01:38;;;;;;;;;;;18.20;99.90;;;;;;5034387;28;20009;-41
2023/05/30 00:04:03;;;;;;;;;;;18.20;99.90;;;;;;5034151;28;20278;-42
2023/05/30 00:06:29;;;;;;;;;;;18.20;99.90;;;;;;5033793;28;19916;-41
2023/05/30 00:08:54;;;;;;;;;;;18.20;99.90;;;;;;5034298;28;19905;-40
2023/05/30 00:11:23;;;;;;;;;;;18.10;99.90;;;;;;5034138;28;19963;-40
2023/05/30 00:13:49;;;;;;;;;;;18.20;99.90;;;;;;5034143;28;19904;-41
2023/05/30 00:16:15;;;;;;;;;;;18.20;99.90;;;;;;5033584;28;19905;-40
2023/05/30 00:18:41;;;;;;;;;;;18.20;99.90;;;;;;5033971;28;19905;-40
2023/05/30 00:21:07;;;;;;;;;;;18.20;99.90;;;;;;5033922;28;20369;-41
2023/05/30 00:23:35;;;;;;;;;;;18.10;99.90;;;;;;5033925;28;19919;-40
2023/05/30 00:26:01;;;;;;;;;;;18.10;99.90;;;;;;5033539;28;19959;-40
2023/05/30 00:28:27;;;;;;;;;;;18.10;99.90;;;;;;5034068;28;20294;-41
2023/05/30 00:30:53;;;;;;;;;;;18.10;99.90;;;;;;5033791;28;19917;-41
2023/05/30 00:33:19;;;;;;;;;;;18.10;99.90;;;;;;5033615;28;19909;-43
2023/05/30 00:35:45;;;;;;;;;;;18.10;99.90;;;;;;5035055;28;19912;-40
2023/05/30 00:38:11;;;;;;;;;;;18.10;99.90;;;;;;5033465;28;19905;-40
2023/05/30 00:40:36;;;;;;;;;;;18.10;99.90;;;;;;5033575;28;20442;-41
2023/05/30 00:43:02;;;;;;;;;;;18.10;99.90;;;;;;5033391;28;19915;-40
2023/05/30 00:45:27;;;;;;;;;;;18.10;99.90;;;;;;5034013;28;19909;-40
2023/05/30 00:47:53;;;;;;;;;;;18.10;99.90;;;;;;5031635;28;19905;-41
2023/05/30 00:50:19;;;;;;;;;;;18.10;99.90;;;;;;5033410;28;20397;-41
2023/05/30 00:52:45;;;;;;;;;;;18.10;99.90;;;;;;5033430;28;19909;-42
2023/05/30 00:55:11;;;;;;;;;;;18.10;99.90;;;;;;5033307;28;19905;-41
2023/05/30 00:57:36;;;;;;;;;;;18.10;99.90;;;;;;5033143;28;19905;-41
2023/05/30 01:00:03;;;;;;;;;;;18.10;99.90;;;;;;5033729;28;19913;-41
2023/05/30 01:02:32;;;;;;;;;;;18.10;99.90;;;;;;5033117;28;19904;-41
2023/05/30 01:04:58;;;;;;;;;;;18.10;99.90;;;;;;5033448;28;19905;-40
2023/05/30 01:07:23;;;;;;;;;;;18.00;99.90;;;;;;5032635;28;19912;-41
2023/05/30 01:09:49;;;;;;;;;;;18.10;99.90;;;;;;5033084;28;20337;-40
2023/05/30 01:12:20;;;;;;;;;;;18.00;99.90;;;;;;5033004;28;19966;-40
2023/05/30 01:14:59;;;;;;;;;;;18.00;99.90;;;;;;5032955;28;19978;-41
2023/05/30 01:17:26;;;;;;;;;;;18.00;99.90;;;;;;5032466;28;19905;-41
2023/05/30 01:19:58;;;;;;;;;;;18.00;99.90;;;;;;5033003;28;19905;-41
2023/05/30 01:22:28;;;;;;;;;;;18.00;99.90;;;;;;5032906;28;19976;-41
2023/05/30 01:25:06;;;;;;;;;;;18.00;99.90;;;;;;5032661;28;19912;-40
2023/05/30 01:27:54;;;;;;;;;;;18.00;99.90;;;;;;5032692;28;19909;-40
2023/05/30 01:30:20;;;;;;;;;;;18.00;99.90;;;;;;5032865;28;19958;-41
2023/05/30 01:32:46;;;;;;;;;;;18.00;99.90;;;;;;5032761;28;19909;-41
2023/05/30 01:35:23;;;;;;;;;;;18.00;99.90;;;;;;5032694;28;19916;-41
2023/05/30 01:37:49;;;;;;;;;;;18.00;99.90;;;;;;5032074;28;19905;-41
2023/05/30 01:40:22;;;;;;;;;;;18.00;99.90;;;;;;5032491;28;20366;-40
2023/05/30 01:42:51;;;;;;;;;;;18.00;99.90;;;;;;5032347;28;20366;-40
2023/05/30 01:45:20;;;;;;;;;;;18.00;99.90;;;;;;5032911;28;19908;-41
2023/05/30 01:47:52;;;;;;;;;;;18.00;99.90;;;;;;5031942;28;19905;-41
2023/05/30 01:50:19;;;;;;;;;;;18.00;99.90;;;;;;5032194;28;20417;-41
2023/05/30 01:52:51;;;;;;;;;;;18.00;99.90;;;;;;5032408;28;19912;-41
2023/05/30 01:55:17;;;;;;;;;;;17.90;99.90;;;;;;5032224;28;20278;-43
2023/05/30 01:57:47;;;;;;;;;;;18.00;99.90;;;;;;5031928;28;20397;-40
2023/05/30 02:00:15;;;;;;;;;;;17.90;99.90;;;;;;5031894;28;19944;-40
2023/05/30 02:02:42;;;;;;;;;;;17.90;99.90;;;;;;5032196;28;19909;-41
2023/05/30 02:05:07;;;;;;;;;;;18.00;99.90;;;;;;5031958;28;19913;-41
2023/05/30 02:07:33;;;;;;;;;;;18.00;99.90;;;;;;5031505;28;19909;-41
2023/05/30 02:09:58;;;;;;;;;;;18.00;99.90;;;;;;5031969;28;19905;-41
2023/05/30 02:12:24;;;;;;;;;;;18.00;99.90;;;;;;5031909;28;19909;-41
2023/05/30 02:14:52;;;;;;;;;;;18.00;99.90;;;;;;5031955;28;19905;-41
2023/05/30 02:17:21;;;;;;;;;;;17.90;99.90;;;;;;5032786;28;19909;-40
2023/05/30 02:19:47;;;;;;;;;;;17.90;99.90;;;;;;5031758;28;20355;-42
2023/05/30 02:22:12;;;;;;;;;;;17.90;99.90;;;;;;5031756;28;19923;-40
2023/05/30 02:24:38;;;;;;;;;;;17.90;99.90;;;;;;5031725;28;19909;-40
2023/05/30 02:27:03;;;;;;;;;;;17.90;99.90;;;;;;5031246;28;20347;-41
2023/05/30 02:29:29;;;;;;;;;;;17.90;99.90;;;;;;5031702;28;19916;-40
2023/05/30 02:31:54;;;;;;;;;;;17.90;99.90;;;;;;5031555;28;19939;-41
2023/05/30 02:34:20;;;;;;;;;;;17.90;99.90;;;;;;5031519;28;19905;-41
2023/05/30 02:36:45;;;;;;;;;;;17.90;99.90;;;;;;5031040;28;20390;-41
2023/05/30 02:39:11;;;;;;;;;;;17.90;99.90;;;;;;5031580;28;19927;-42
2023/05/30 02:41:37;;;;;;;;;;;17.90;99.90;;;;;;5031569;28;20382;-41
2023/05/30 02:44:04;;;;;;;;;;;17.90;99.90;;;;;;5031362;28;19917;-40
2023/05/30 02:46:29;;;;;;;;;;;17.90;99.90;;;;;;5031007;28;19905;-40
2023/05/30 02:48:55;;;;;;;;;;;17.90;99.90;;;;;;5031358;28;19908;-40
2023/05/30 02:51:20;;;;;;;;;;;17.90;99.90;;;;;;5031300;28;19913;-42
2023/05/30 02:53:46;;;;;;;;;;;17.90;99.90;;;;;;5031377;28;19967;-40
2023/05/30 02:56:11;;;;;;;;;;;17.90;99.90;;;;;;5030937;28;19905;-40
2023/05/30 02:58:37;;;;;;;;;;;17.90;99.90;;;;;;5031409;28;19912;-41
2023/05/30 03:01:02;;;;;;;;;;;17.90;99.90;;;;;;5031310;28;20373;-41
2023/05/30 03:03:29;;;;;;;;;;;17.90;99.90;;;;;;5031143;28;19916;-42
2023/05/30 03:05:57;;;;;;;;;;;17.90;99.90;;;;;;5031080;28;19905;-40
2023/05/30 03:08:23;;;;;;;;;;;17.80;99.90;;;;;;5031095;28;19909;-40
2023/05/30 03:10:48;;;;;;;;;;;17.90;99.90;;;;;;5013434;28;20325;-41
2023/05/30 03:13:14;;;;;;;;;;;17.90;99.90;;;;;;5035097;28;19909;-40
2023/05/30 03:15:40;;;;;;;;;;;17.90;99.90;;;;;;5035167;28;19909;-40
2023/05/30 03:18:05;;;;;;;;;;;17.80;99.90;;;;;;5034761;28;19905;-40
2023/05/30 03:20:31;;;;;;;;;;;17.90;99.90;;;;;;5035137;28;19905;-41
2023/05/30 03:22:56;;;;;;;;;;;17.80;99.90;;;;;;5035036;28;20385;-41
2023/05/30 03:25:22;;;;;;;;;;;17.90;99.90;;;;;;5035446;28;19956;-41
2023/05/30 03:27:50;;;;;;;;;;;17.80;99.90;;;;;;5034352;28;19909;-40
2023/05/30 03:30:17;;;;;;;;;;;17.80;99.90;;;;;;5035180;28;20478;-40
2023/05/30 03:32:42;;;;;;;;;;;17.80;99.90;;;;;;5034838;28;19909;-42
2023/05/30 03:35:08;;;;;;;;;;;17.80;99.90;;;;;;5034818;28;20333;-41
2023/05/30 03:37:33;;;;;;;;;;;17.80;99.90;;;;;;5034371;28;20322;-40
2023/05/30 03:39:59;;;;;;;;;;;17.80;99.90;;;;;;5034805;28;20412;-40
2023/05/30 03:42:25;;;;;;;;;;;17.80;99.90;;;;;;5034776;28;20000;-42
2023/05/30 03:44:50;;;;;;;;;;;17.80;99.90;;;;;;5034546;28;20270;-41
2023/05/30 03:47:15;;;;;;;;;;;17.80;99.90;;;;;;5034158;28;19958;-42
2023/05/30 03:49:41;;;;;;;;;;;17.80;99.90;;;;;;5034650;28;19928;-41
2023/05/30 03:52:07;;;;;;;;;;;17.80;99.90;;;;;;5034596;28;19955;-43
2023/05/30 03:54:32;;;;;;;;;;;17.80;99.90;;;;;;5034569;28;19962;-40
2023/05/30 03:56:58;;;;;;;;;;;17.80;99.90;;;;;;5034159;28;19909;-40
2023/05/30 03:59:23;;;;;;;;;;;17.80;99.90;;;;;;5034455;28;19990;-40
2023/05/30 04:01:49;;;;;;;;;;;17.80;99.90;;;;;;5034304;28;20378;-40
2023/05/30 04:04:14;;;;;;;;;;;17.80;99.90;;;;;;5034530;28;19916;-40
2023/05/30 04:06:40;;;;;;;;;;;17.80;99.90;;;;;;5033915;28;19909;-40
2023/05/30 04:09:06;;;;;;;;;;;17.80;99.90;;;;;;5034277;28;19905;-40
2023/05/30 04:11:31;;;;;;;;;;;17.80;99.90;;;;;;5034174;28;19923;-41
2023/05/30 04:13:57;;;;;;;;;;;17.80;99.90;;;;;;5034187;28;19912;-40
2023/05/30 04:16:22;;;;;;;;;;;17.80;99.90;;;;;;5033534;28;20006;-41
2023/05/30 04:18:48;;;;;;;;;;;17.70;99.90;;;;;;5034115;28;20314;-40
2023/05/30 04:21:14;;;;;;;;;;;17.70;99.90;;;;;;5034047;28;19912;-41
2023/05/30 04:23:42;;;;;;;;;;;17.70;99.90;;;;;;5033690;28;19912;-41
2023/05/30 04:26:09;;;;;;;;;;;17.70;99.90;;;;;;5033943;28;19915;-41
2023/05/30 04:28:42;;;;;;;;;;;17.70;99.90;;;;;;5033847;28;19905;-40
2023/05/30 04:31:08;;;;;;;;;;;17.70;99.90;;;;;;5033829;28;19915;-40
2023/05/30 04:33:35;;;;;;;;;;;17.80;99.90;;;;;;5033800;28;20309;-42
2023/05/30 04:36:10;;;;;;;;;;;17.70;99.90;;;;;;5033365;28;19912;-41
2023/05/30 04:38:37;;;;;;;;;;;17.80;99.90;;;;;;5033837;28;19908;-41
2023/05/30 04:41:03;;;;;;;;;;;17.80;99.90;;;;;;5033653;28;19913;-40
2023/05/30 04:43:29;;;;;;;;;;;17.80;99.90;;;;;;5033683;28;19936;-41
2023/05/30 04:45:55;;;;;;;;;;;17.80;99.90;;;;;;5033304;28;20345;-41
2023/05/30 04:48:22;;;;;;;;;;;17.80;99.90;;;;;;5033491;28;19911;-40
2023/05/30 04:50:48;;;;;;;;;;;17.70;99.90;;;;;;5033532;28;19955;-41
2023/05/30 04:53:15;;;;;;;;;;;17.70;99.90;;;;;;5033404;28;19909;-40
2023/05/30 04:55:44;;;;;;;;;;;17.80;99.90;;;;;;5015499;28;19912;-40
2023/05/30 04:58:10;;;;;;;;;;;17.70;99.90;;;;;;5033222;28;19909;-40
2023/05/30 05:00:36;;;;;;;;;;;17.70;99.90;;;;;;5033384;28;20370;-40
2023/05/30 05:03:02;;;;;;;;;;;17.70;99.90;;;;;;5033246;28;19912;-41
2023/05/30 05:05:28;;;;;;;;;;;17.70;99.90;;;;;;5033272;28;19916;-40
2023/05/30 05:07:53;;;;;;;;;;;17.70;99.90;;;;;;5032744;28;19909;-41
2023/05/30 05:10:19;;;;;;;;;;;17.70;99.90;;;;;;5033037;28;19920;-41
2023/05/30 05:12:44;;;;;;;;;;;17.80;99.90;;;;;;5033127;28;20355;-40
2023/05/30 05:15:10;;;;;;;;;;;17.70;99.90;;;;;;5033035;28;19904;-41
2023/05/30 05:17:36;;;;;;;;;;;17.70;99.90;;;;;;5032508;28;19912;-41
2023/05/30 05:20:05;;;;;;;;;;;17.70;99.90;;;;;;5033329;28;20259;-41
2023/05/30 05:22:31;;;;;;;;;;;17.80;99.90;;;;;;5032953;28;20292;-42
2023/05/30 05:24:57;;;;;;;;;;;17.80;99.90;;;;;;5032650;28;19927;-41
2023/05/30 05:27:22;;;;;;;;;;;17.80;99.90;;;;;;5032324;28;20423;-42
2023/05/30 05:29:48;;;;;;;;;;;17.80;99.90;;;;;;5032763;28;19912;-41
2023/05/30 05:32:13;;;;;;;;;;;17.80;99.90;;;;;;5032667;28;20342;-40
2023/05/30 05:34:39;;;;;;;;;;;17.80;99.90;;;;;;5031944;28;19995;-41
2023/05/30 05:37:05;;;;;;;;;;;17.80;99.90;;;;;;5032275;28;19932;-41
2023/05/30 05:39:30;;;;;;;;;;;17.80;99.90;;;;;;5032684;28;19905;-41
2023/05/30 05:41:56;;;;;;;;;;;17.80;99.90;;;;;;5032551;28;19958;-41
2023/05/30 05:44:22;;;;;;;;;;;17.80;99.90;;;;;;5032387;28;19920;-40
2023/05/30 05:46:47;;;;;;;;;;;17.80;99.90;;;;;;5031937;28;19909;-42
2023/05/30 05:49:13;;;;;;;;;;;17.80;99.90;;;;;;5032727;28;20282;-41
2023/05/30 05:51:38;;;;;;;;;;;17.80;99.90;;;;;;5032272;28;19913;-41
2023/05/30 05:54:04;;;;;;;;;;;17.80;99.90;;;;;;5032174;28;19912;-42
2023/05/30 05:56:29;;;;;;;;;;;17.80;99.90;;;;;;5031743;28;19916;-41
2023/05/30 05:58:55;;;;;;;;;;;17.90;99.90;;;;;;5032227;28;19909;-40
2023/05/30 06:01:21;;;;;;;;;;;17.90;99.90;;;;;;5032276;28;19909;-40
2023/05/30 06:03:46;;;;;;;;;;;17.90;99.90;;;;;;5032038;28;20298;-40
2023/05/30 06:06:12;;;;;;;;;;;17.90;99.90;;;;;;5031795;28;20063;-40
2023/05/30 06:08:38;;;;;;;;;;;17.90;99.90;;;;;;5031921;28;19909;-41
2023/05/30 06:11:04;;;;;;;;;;;17.90;99.90;;;;;;5031925;28;20422;-41
2023/05/30 06:13:29;;;;;;;;;;;17.90;99.90;;;;;;5031889;28;19905;-40
2023/05/30 06:15:54;;;;;;;;;;;17.90;99.90;;;;;;5031589;28;19911;-41
2023/05/30 06:18:20;;;;;;;;;;;17.90;99.90;;;;;;5031629;28;19912;-42
2023/05/30 06:20:45;;;;;;;;;;;17.90;99.90;;;;;;5031799;28;20394;-40
2023/05/30 06:23:11;;;;;;;;;;;17.90;99.90;;;;;;5031685;28;19905;-41
2023/05/30 06:25:36;;;;;;;;;;;17.90;99.90;;;;;;5031623;28;19909;-41
2023/05/30 06:28:02;;;;;;;;;;;17.90;99.90;;;;;;5031445;28;19908;-41
2023/05/30 06:30:27;;;;;;;;;;;18.00;99.90;;;;;;5031619;28;19936;-41
2023/05/30 06:32:53;;;;;;;;;;;17.90;99.90;;;;;;5031911;28;19915;-41
2023/05/30 06:35:18;;;;;;;;;;;17.90;99.90;;;;;;5031588;28;19970;-41
2023/05/30 06:37:44;;;;;;;;;;;18.00;99.90;;;;;;5031162;28;19959;-41
2023/05/30 06:40:10;;;;;;;;;;;18.00;99.90;;;;;;5031583;28;19941;-41
2023/05/30 06:42:36;;;;;;;;;;;17.90;99.90;;;;;;5031798;28;20276;-40
2023/05/30 06:45:01;;;;;;;;;;;18.00;99.90;;;;;;5031298;28;20321;-40
2023/05/30 06:47:27;;;;;;;;;;;18.00;99.90;;;;;;5030989;28;19954;-40
2023/05/30 06:49:52;;;;;;;;;;;18.00;99.90;;;;;;5031494;28;20319;-40
2023/05/30 06:52:18;;;;;;;;;;;18.00;99.90;;;;;;5031365;28;19916;-42
2023/05/30 06:54:43;;;;;;;;;;;18.00;99.90;;;;;;5031256;28;19966;-41
2023/05/30 06:57:08;;;;;;;;;;;18.00;99.90;;;;;;5030878;28;20293;-40
2023/05/30 06:59:34;;;;;;;;;;;18.00;99.90;;;;;;5031506;28;19909;-42
2023/05/30 07:02:01;;;;;;;;;;;18.00;99.90;;;;;;5031305;28;19952;-40
2023/05/30 07:04:26;;;;;;;;;;;18.00;99.90;;;;;;5031351;28;19951;-40
2023/05/30 07:06:52;;;;;;;;;;;18.00;99.90;;;;;;5030669;28;19905;-40
2023/05/30 07:09:18;;;;;;;;;;;18.00;99.90;;;;;;5031178;28;20305;-41
2023/05/30 07:11:43;;;;;;;;;;;18.00;99.90;;;;;;5031360;28;19909;-40
2023/05/30 07:14:11;;;;;;;;;;;18.00;99.90;;;;;;5031161;28;19912;-41
2023/05/30 07:16:37;;;;;;;;;;;18.00;99.90;;;;;;5030625;28;19905;-41
2023/05/30 07:19:02;;;;;;;;;;;18.00;99.90;;;;;;5031303;28;20150;-41
2023/05/30 07:21:29;;;;;;;;;;;18.00;99.90;;;;;;5031185;28;19962;-40
2023/05/30 07:23:55;;;;;;;;;;;18.00;99.90;;;;;;5031042;28;19916;-41
2023/05/30 07:26:21;;;;;;;;;;;18.00;99.90;;;;;;5030641;28;19912;-41
2023/05/30 07:28:46;;;;;;;;;;;18.00;99.90;;;;;;5031126;28;20332;-40
2023/05/30 07:31:12;;;;;;;;;;;18.00;99.90;;;;;;5030994;28;19962;-41
2023/05/30 07:33:37;;;;;;;;;;;18.10;99.90;;;;;;5030967;28;19999;-42
2023/05/30 07:36:03;;;;;;;;;;;18.10;99.90;;;;;;5030648;28;19967;-41
2023/05/30 07:38:28;;;;;;;;;;;18.10;99.90;;;;;;5030899;28;19999;-40
2023/05/30 07:40:54;;;;;;;;;;;18.10;99.90;;;;;;5030982;28;19905;-41
2023/05/30 07:43:19;;;;;;;;;;;18.10;99.90;;;;;;5030789;28;19963;-41
2023/05/30 07:45:45;;;;;;;;;;;18.10;99.90;;;;;;5031227;28;19951;-41
2023/05/30 07:48:11;;;;;;;;;;;18.10;99.90;;;;;;5030694;28;20430;-40
2023/05/30 07:50:36;;;;;;;;;;;18.10;99.90;;;;;;5030808;28;19905;-40
2023/05/30 07:53:02;;;;;;;;;;;18.10;99.90;;;;;;5030665;28;19913;-41
2023/05/30 07:55:27;;;;;;;;;;;18.10;99.90;;;;;;5030897;28;20341;-41
2023/05/30 07:57:53;;;;;;;;;;;18.10;99.90;;;;;;5031825;28;20385;-40
2023/05/30 08:00:18;;;;;;;;;;;18.10;99.90;;;;;;5034442;28;19951;-40
2023/05/30 08:02:44;;;;;;;;;;;18.10;99.90;;;;;;5034397;28;19944;-41
2023/05/30 08:05:09;;;;;;;;;;;18.10;99.90;;;;;;5034353;28;19983;-40
2023/05/30 08:07:35;;;;;;;;;;;18.10;99.90;;;;;;5033664;28;20282;-40
2023/05/30 08:10:01;;;;;;;;;;;18.10;99.90;;;;;;5034220;28;19904;-42
2023/05/30 08:12:29;;;;;;;;;;;18.20;99.90;;;;;;5034175;28;19967;-41
2023/05/30 08:14:57;;;;;;;;;;;18.10;99.90;;;;;;5034046;28;19905;-41
2023/05/30 08:17:29;;;;;;;;;;;18.10;99.90;;;;;;5033601;28;20379;-42
2023/05/30 08:19:55;;;;;;;;;;;18.10;99.90;;;;;;5033997;28;19909;-41
2023/05/30 08:22:22;;;;;;;;;;;18.20;99.90;;;;;;5034034;28;19908;-40
2023/05/30 08:24:50;;;;;;;;;;;18.10;99.90;;;;;;5033927;28;19905;-41
2023/05/30 08:27:15;;;;;;;;;;;18.20;99.90;;;;;;5033447;28;19905;-40
2023/05/30 08:29:42;;;;;;;;;;;18.10;99.90;;;;;;5033677;28;19905;-40
2023/05/30 08:32:08;;;;;;;;;;;18.10;99.90;;;;;;5033826;28;19956;-41
2023/05/30 08:34:34;;;;;;;;;;;18.20;99.90;;;;;;5033646;28;19948;-41
2023/05/30 08:37:00;;;;;;;;;;;18.10;99.90;;;;;;5033303;28;19935;-40
2023/05/30 08:39:26;;;;;;;;;;;18.10;99.90;;;;;;5033866;28;19905;-41
2023/05/30 08:41:52;;;;;;;;;;;18.10;99.90;;;;;;5033671;28;19905;-40
2023/05/30 08:44:17;;;;;;;;;;;18.20;99.90;;;;;;5033495;28;20157;-40
2023/05/30 08:46:43;;;;;;;;;;;18.20;99.90;;;;;;5033067;28;19911;-41
2023/05/30 08:49:12;;;;;;;;;;;18.20;99.90;;;;;;5033725;28;19913;-41
2023/05/30 08:51:38;;;;;;;;;;;18.20;99.90;;;;;;5033681;28;19931;-40
2023/05/30 08:54:05;;;;;;;;;;;18.30;99.90;;;;;;5033388;28;19909;-41
2023/05/30 08:56:37;;;;;;;;;;;18.30;99.90;;;;;;5033114;28;20000;-41
2023/05/30 08:59:08;;;;;;;;;;;18.30;99.90;;;;;;5033400;28;19913;-40
2023/05/30 09:01:34;;;;;;;;;;;18.30;99.90;;;;;;5033311;28;19999;-40
2023/05/30 09:04:00;;;;;;;;;;;18.40;99.90;;;;;;5033194;28;19905;-42
2023/05/30 09:06:25;;;;;;;;;;;18.30;99.90;;;;;;5032936;28;19936;-40
2023/05/30 09:08:51;;;;;;;;;;;18.40;99.90;;;;;;5032356;28;19941;-40
2023/05/30 09:11:18;;;;;;;;;;;18.40;99.90;;;;;;5033076;28;19916;-41
2023/05/30 09:13:44;;;;;;;;;;;18.40;99.90;;;;;;5032998;28;20417;-41
2023/05/30 09:16:10;;;;;;;;;;;18.40;99.90;;;;;;5032472;28;20393;-40
2023/05/30 09:18:36;;;;;;;;;;;18.50;99.90;;;;;;5032935;28;19909;-42
2023/05/30 09:21:01;;;;;;;;;;;18.40;99.90;;;;;;5033182;28;20384;-40
2023/05/30 09:23:27;;;;;;;;;;;18.50;99.90;;;;;;5033024;28;19909;-41
2023/05/30 09:25:52;;;;;;;;;;;18.50;99.90;;;;;;5032591;28;19916;-41
2023/05/30 09:28:25;;;;;;;;;;;18.50;99.90;;;;;;5032699;28;19992;-41
2023/05/30 09:30:58;;;;;;;;;;;18.50;99.90;;;;;;5032674;28;19916;-41
2023/05/30 09:33:24;;;;;;;;;;;18.50;99.90;;;;;;5032764;28;19920;-40
2023/05/30 09:35:52;;;;;;;;;;;18.50;99.90;;;;;;5032550;28;19905;-41
2023/05/30 09:38:22;;;;;;;;;;;18.50;99.90;;;;;;5032533;28;19936;-41
2023/05/30 09:41:06;;;;;;;;;;;18.50;99.90;;;;;;5032966;28;19905;-40
2023/05/30 09:43:34;;;;;;;;;;;18.60;99.90;;;;;;5032367;28;19917;-41
2023/05/30 09:46:03;;;;;;;;;;;18.60;99.90;;;;;;5032123;28;20309;-40
2023/05/30 09:48:29;;;;;;;;;;;18.70;99.90;;;;;;5032226;28;19909;-40
2023/05/30 09:50:57;;;;;;;;;;;18.80;99.90;;;;;;5032307;28;20332;-40
2023/05/30 09:53:22;;;;;;;;;;;18.90;99.90;;;;;;5032335;28;20039;-40
2023/05/30 09:55:48;;;;;;;;;;;18.90;99.90;;;;;;5031835;28;20011;-39
2023/05/30 09:58:23;;;;;;;;;;;18.80;99.90;;;;;;5032231;28;20047;-40
2023/05/30 10:00:51;;;;;;;;;;;18.80;99.90;;;;;;5032352;28;19905;-40
2023/05/30 10:03:17;;;;;;;;;;;18.80;99.90;;;;;;5032155;28;19987;-40
2023/05/30 10:05:43;;;;;;;;;;;18.90;99.90;;;;;;5031998;28;20067;-39
2023/05/30 10:08:10;;;;;;;;;;;18.90;99.90;;;;;;5031799;28;19905;-40
2023/05/30 10:10:35;;;;;;;;;;;19.00;99.90;;;;;;5031843;28;19905;-39
2023/05/30 10:13:01;;;;;;;;;;;19.00;99.90;;;;;;5031896;28;19905;-41
2023/05/30 10:15:27;;;;;;;;;;;19.00;99.90;;;;;;5031937;28;19905;-40
2023/05/30 10:17:58;;;;;;;;;;;19.10;99.90;;;;;;5031492;28;19905;-39
2023/05/30 10:20:25;;;;;;;;;;;19.10;99.90;;;;;;5031678;28;20298;-41
2023/05/30 10:22:54;;;;;;;;;;;19.10;99.90;;;;;;5031777;28;19909;-39
2023/05/30 10:25:21;;;;;;;;;;;19.10;99.90;;;;;;5032005;28;19959;-40
2023/05/30 10:27:51;;;;;;;;;;;19.10;99.90;;;;;;5031428;28;19912;-39
2023/05/30 10:30:25;;;;;;;;;;;19.10;99.90;;;;;;5031845;28;19905;-40
2023/05/30 10:33:01;;;;;;;;;;;19.20;99.90;;;;;;5031659;28;19920;-40
2023/05/30 10:35:27;;;;;;;;;;;19.20;99.90;;;;;;5031565;28;19909;-40
2023/05/30 10:37:53;;;;;;;;;;;19.20;99.90;;;;;;5031171;28;20329;-40
2023/05/30 10:40:25;;;;;;;;;;;19.20;99.90;;;;;;5031610;28;19905;-40
2023/05/30 10:42:56;;;;;;;;;;;19.20;99.90;;;;;;5031459;28;19905;-40
2023/05/30 10:45:28;;;;;;;;;;;19.20;99.90;;;;;;5031576;28;19913;-41
2023/05/30 10:48:06;;;;;;;;;;;19.20;99.90;;;;;;5030914;28;19916;-39
2023/05/30 10:50:37;;;;;;;;;;;19.30;99.90;;;;;;5031378;28;19912;-39
2023/05/30 10:53:11;;;;;;;;;;;19.30;99.90;;;;;;5031375;28;19932;-41
2023/05/30 10:55:36;;;;;;;;;;;19.30;99.90;;;;;;5031420;28;19928;-39
2023/05/30 10:58:22;;;;;;;;;;;19.30;99.90;;;;;;5030928;28;20386;-39
2023/05/30 11:00:49;;;;;;;;;;;19.30;99.90;;;;;;5031264;28;19909;-40
2023/05/30 11:03:34;;;;;;;;;;;19.40;99.90;;;;;;5031325;28;19932;-40
2023/05/30 11:06:00;;;;;;;;;;;19.30;99.90;;;;;;5030972;28;19909;-39
2023/05/30 11:08:25;;;;;;;;;;;19.30;99.90;;;;;;5031219;28;20374;-40
2023/05/30 11:10:55;;;;;;;;;;;19.30;99.90;;;;;;5031122;28;20279;-39
2023/05/30 11:13:20;;;;;;;;;;;19.40;99.90;;;;;;5031190;28;19905;-40
2023/05/30 11:15:46;;;;;;;;;;;19.30;99.90;;;;;;5031196;28;19971;-40
2023/05/30 11:18:15;;;;;;;;;;;19.40;99.90;;;;;;5031077;28;20290;-40
2023/05/30 11:20:51;;;;;;;;;;;19.40;99.90;;;;;;5031244;28;19909;-40
2023/05/30 11:23:17;;;;;;;;;;;19.40;99.90;;;;;;5031037;28;19909;-39
2023/05/30 11:25:42;;;;;;;;;;;19.40;99.90;;;;;;5031272;28;19905;-40
2023/05/30 11:28:10;;;;;;;;;;;19.40;99.90;;;;;;5030817;28;19959;-39
2023/05/30 11:30:40;;;;;;;;;;;19.40;99.90;;;;;;5031184;28;19906;-39
2023/05/30 11:33:09;;;;;;;;;;;19.40;99.90;;;;;;5033485;28;19951;-40
2023/05/30 11:35:34;;;;;;;;;;;19.40;99.90;;;;;;5035409;28;19974;-40
2023/05/30 11:38:01;;;;;;;;;;;19.40;99.90;;;;;;5034338;28;20402;-40
2023/05/30 11:40:28;;;;;;;;;;;19.40;99.90;;;;;;5034803;28;19905;-40
2023/05/30 11:42:54;;;;;;;;;;;19.40;99.90;;;;;;5034714;28;19909;-40
2023/05/30 11:45:23;;;;;;;;;;;19.40;99.90;;;;;;5034833;28;19916;-40
2023/05/30 11:47:48;;;;;;;;;;;19.40;99.90;;;;;;5034225;28;19967;-40
2023/05/30 11:50:14;;;;;;;;;;;19.40;99.90;;;;;;5035210;28;20387;-41
2023/05/30 11:52:40;;;;;;;;;;;19.50;99.90;;;;;;5034468;28;20031;-39
2023/05/30 11:55:05;;;;;;;;;;;19.40;99.90;;;;;;5034463;28;19908;-39
2023/05/30 11:57:31;;;;;;;;;;;19.50;99.90;;;;;;5034129;28;20393;-40
2023/05/30 11:59:57;;;;;;;;;;;19.50;99.90;;;;;;5034783;28;20378;-40
2023/05/30 12:02:26;;;;;;;;;;;19.50;99.90;;;;;;5034440;28;20001;-39
2023/05/30 12:04:58;;;;;;;;;;;19.50;99.90;;;;;;5034293;28;19940;-41
2023/05/30 12:07:23;;;;;;;;;;;19.50;99.90;;;;;;5033895;28;19905;-40
2023/05/30 12:09:49;;;;;;;;;;;19.50;99.90;;;;;;5034267;28;20011;-40
2023/05/30 12:12:14;;;;;;;;;;;19.50;99.90;;;;;;5034208;28;19916;-39
2023/05/30 12:14:53;;;;;;;;;;;19.50;99.90;;;;;;5034387;28;19905;-40
2023/05/30 12:17:20;;;;;;;;;;;19.50;99.90;;;;;;5033656;28;19909;-39
2023/05/30 12:19:46;;;;;;;;;;;19.50;99.90;;;;;;5034174;28;20274;-41
2023/05/30 12:22:11;;;;;;;;;;;19.50;99.90;;;;;;5034217;28;19909;-39
2023/05/30 12:24:37;;;;;;;;;;;19.50;99.90;;;;;;5034007;28;20363;-39
2023/05/30 12:27:05;;;;;;;;;;;19.60;99.90;;;;;;5033497;28;19905;-40
2023/05/30 12:29:34;;;;;;;;;;;19.60;99.90;;;;;;5034025;28;19951;-39
2023/05/30 12:32:03;;;;;;;;;;;19.60;99.90;;;;;;5033847;28;19909;-39
2023/05/30 12:34:35;;;;;;;;;;;19.70;99.90;;;;;;5033861;28;20027;-39
2023/05/30 12:37:01;;;;;;;;;;;19.70;99.90;;;;;;5033301;28;20426;-40
2023/05/30 12:39:26;;;;;;;;;;;19.70;99.90;;;;;;5033734;28;20000;-40
2023/05/30 12:41:54;;;;;;;;;;;19.70;99.90;;;;;;5033725;28;19996;-40
2023/05/30 12:44:20;;;;;;;;;;;19.80;99.90;;;;;;5033316;28;19917;-40
2023/05/30 12:46:45;;;;;;;;;;;19.70;99.90;;;;;;5033483;28;19905;-42
2023/05/30 12:49:11;;;;;;;;;;;19.70;99.90;;;;;;5033568;28;20386;-41
2023/05/30 12:51:37;;;;;;;;;;;19.60;99.90;;;;;;5033659;28;19978;-40
2023/05/30 12:54:02;;;;;;;;;;;19.70;99.90;;;;;;5033723;28;19905;-40
2023/05/30 12:56:29;;;;;;;;;;;19.70;99.90;;;;;;5032985;28;19996;-40
2023/05/30 12:58:54;;;;;;;;;;;19.70;99.90;;;;;;5033449;28;19920;-40
2023/05/30 13:01:20;;;;;;;;;;;19.70;99.90;;;;;;5033453;28;19909;-41
2023/05/30 13:03:46;;;;;;;;;;;19.60;99.90;;;;;;5033317;28;20267;-41
2023/05/30 13:06:12;;;;;;;;;;;19.60;99.90;;;;;;5032999;28;19959;-40
2023/05/30 13:08:37;;;;;;;;;;;19.60;99.90;;;;;;5033171;28;20004;-40
2023/05/30 13:11:03;;;;;;;;;;;19.70;99.90;;;;;;5033099;28;20454;-41
2023/05/30 13:13:30;;;;;;;;;;;19.70;99.90;;;;;;5033076;28;19909;-39
2023/05/30 13:15:56;;;;;;;;;;;19.70;99.90;;;;;;5033214;28;19954;-40
2023/05/30 13:18:22;;;;;;;;;;;19.70;99.90;;;;;;5033516;28;20124;-40
2023/05/30 13:20:47;;;;;;;;;;;19.70;99.90;;;;;;5033104;28;19905;-40
2023/05/30 13:23:13;;;;;;;;;;;19.70;99.90;;;;;;5033004;28;19905;-40
2023/05/30 13:25:39;;;;;;;;;;;19.70;99.90;;;;;;5032887;28;19905;-39
2023/05/30 13:28:05;;;;;;;;;;;19.70;99.90;;;;;;5032294;28;20375;-40
2023/05/30 13:30:30;;;;;;;;;;;19.70;99.90;;;;;;5032760;28;19955;-40
2023/05/30 13:32:56;;;;;;;;;;;19.70;99.90;;;;;;5032662;28;19909;-40
2023/05/30 13:35:22;;;;;;;;;;;19.70;99.90;;;;;;5032698;28;19909;-41
2023/05/30 13:37:47;;;;;;;;;;;19.70;99.90;;;;;;5032177;28;19905;-40
2023/05/30 13:40:12;;;;;;;;;;;19.70;99.90;;;;;;5032637;28;19940;-40
2023/05/30 13:42:38;;;;;;;;;;;19.70;99.90;;;;;;5032896;28;19992;-39
2023/05/30 13:45:04;;;;;;;;;;;19.70;99.90;;;;;;5032941;28;19916;-40
2023/05/30 13:47:30;;;;;;;;;;;19.70;99.90;;;;;;5032150;28;19909;-40
2023/05/30 13:49:57;;;;;;;;;;;19.70;99.90;;;;;;5032769;28;19911;-40
2023/05/30 13:52:23;;;;;;;;;;;19.70;99.90;;;;;;5032323;28;19913;-41
2023/05/30 13:54:48;;;;;;;;;;;19.70;99.90;;;;;;5031931;28;20444;-39
2023/05/30 13:57:13;;;;;;;;;;;19.70;99.90;;;;;;5031943;28;19916;-39
2023/05/30 13:59:39;;;;;;;;;;;19.60;99.90;;;;;;5032190;28;20031;-40
2023/05/30 14:02:05;;;;;;;;;;;19.60;99.90;;;;;;5032383;28;19905;-40
2023/05/30 14:04:30;;;;;;;;;;;19.70;99.90;;;;;;5032520;28;19927;-40
2023/05/30 14:06:56;;;;;;;;;;;19.70;99.90;;;;;;5031562;28;20477;-39
2023/05/30 14:09:21;;;;;;;;;;;19.70;99.90;;;;;;5032156;28;19937;-40
2023/05/30 14:11:47;;;;;;;;;;;19.70;99.90;;;;;;5032051;28;19909;-40
2023/05/30 14:14:14;;;;;;;;;;;19.70;99.90;;;;;;5032013;28;19916;-40